Norwich, Kansas
Current Conditions -  °F | °C
As of 10:53 PM on Thursday 30 Oct 2014 (Local Time) from KICT Reporting Station
Clear Clear  
Wind Chill: 14°   Ceiling: Unl
Heat Index: 14°   Visibility: 10mi
Dew Point:   Wind: 15mph
Humidity: 44%   Direction: 350°N
Pressure: 30.26"   Gusts: NA
Location:  37.46°N, 97.85°W
Report Text: KICT 310353Z 35013KT 10SM CLR 14/02 A3026 RMK AO2 SLP242 T01390017
Loading
Personal Weather Stations






























Interactive Weather Map
Tropical Storm Tracking
New forecast layout! Learn more

10-Day Weather Forecast

Advertisements
Track Severe Weather on mobile